aviador You're here:

YPTN Decoded Metar

KATHERINE/TINDAL in AUSTRALIA
Report Time2018-06-23 05:30:00
UTC Time2018-06-23 06:02:56
Flight Rules vfr VFR
Wind100° at 11 kt
W.Decomp.*RWY 14: 8.0 kt HW 7.5 kt LCW
W.Rank100° ranks 6
Current wind is above 100° avg. (7.8)
Visibility9999 m
Phenomena:N/A
Clouds:N/A
Expected CloudBase > 12,000 ft AGL from Temp-Dew spread
CeilingNone
Temp29°C (ISA +15)
Dew Point-1°C (14% RH)
Heat Index27.4°C
AAT22.9°C
QNH1014 hPa
Density Alt2,096 ft
Elevation358 ft
Report Wrong Elevation
Raw Report
YPTN 230530Z AUTO 10011KT 9999 // NCD 29/M01 Q1014=

Extra information for YPTN:More info

Metar Taf Metar & Taf Last 4 Metars F.Rules Stats Wind Profile Meteogram Temp Stats Airport Information Weather charts Add Link Nearby VenuesMetar ALERT Operation Metar Decoded Social comments